TimeEST,TemperatureF,Dew PointF,Humidity,Sea Level PressureIn,VisibilityMPH,Wind Direction,Wind SpeedMPH,Gust SpeedMPH,PrecipitationIn,Events,Conditions,WindDirDegrees,DateUTC
12:54 AM,14.0,10.9,88,30.40,10.0,Calm,Calm,-,N/A,,Overcast,0,2013-01-27 05:54:00
1:20 AM,12.2,8.6,85,30.37,10.0,Calm,Calm,-,N/A,,Mostly Cloudy,0,2013-01-27 06:20:00
1:54 AM,14.0,10.9,88,30.43,10.0,SSE,3.5,-,N/A,,Overcast,160,2013-01-27 06:54:00
2:54 AM,17.1,10.9,77,30.45,10.0,NE,4.6,-,N/A,,Overcast,40,2013-01-27 07:54:00
3:21 AM,15.8,10.4,79,30.43,10.0,NE,4.6,-,N/A,,Overcast,50,2013-01-27 08:21:00
3:49 AM,15.8,8.6,73,30.43,8.0,NE,5.8,-,N/A,,Overcast,50,2013-01-27 08:49:00
3:54 AM,15.1,9.0,77,30.47,7.0,ENE,4.6,-,N/A,,Overcast,60,2013-01-27 08:54:00
4:54 AM,14.0,7.0,74,30.49,9.0,ENE,3.5,-,N/A,,Overcast,70,2013-01-27 09:54:00
5:54 AM,12.0,3.9,70,30.51,10.0,ENE,3.5,-,N/A,,Overcast,60,2013-01-27 10:54:00
6:54 AM,10.9,3.0,70,30.53,10.0,ENE,3.5,-,N/A,,Overcast,60,2013-01-27 11:54:00
7:54 AM,3.9,-0.9,80,30.56,10.0,Calm,Calm,-,N/A,,Overcast,0,2013-01-27 12:54:00
8:04 AM,6.8,1.4,79,30.52,10.0,Calm,Calm,-,N/A,,Overcast,0,2013-01-27 13:04:00
8:28 AM,8.6,-0.4,67,30.53,10.0,NE,3.5,-,N/A,,Scattered Clouds,50,2013-01-27 13:28:00
8:54 AM,10.0,-0.0,64,30.57,10.0,ENE,3.5,-,N/A,,Clear,60,2013-01-27 13:54:00
9:54 AM,12.9,3.0,65,30.57,10.0,NE,3.5,-,N/A,,Clear,40,2013-01-27 14:54:00
10:54 AM,15.1,5.0,64,30.58,10.0,Calm,Calm,-,N/A,,Clear,0,2013-01-27 15:54:00
11:54 AM,18.0,7.0,62,30.56,10.0,Calm,Calm,-,N/A,,Clear,0,2013-01-27 16:54:00
12:54 PM,19.0,8.1,62,30.54,10.0,WSW,3.5,-,N/A,,Clear,250,2013-01-27 17:54:00
1:54 PM,21.0,8.1,57,30.53,10.0,South,3.5,-,N/A,,Clear,170,2013-01-27 18:54:00
2:54 PM,23.0,8.1,53,30.53,10.0,Calm,Calm,-,N/A,,Clear,0,2013-01-27 19:54:00
3:54 PM,21.9,7.0,53,30.54,10.0,Calm,Calm,-,N/A,,Clear,0,2013-01-27 20:54:00
4:54 PM,21.9,7.0,53,30.53,10.0,Calm,Calm,-,N/A,,Partly Cloudy,0,2013-01-27 21:54:00
5:54 PM,19.0,9.0,65,30.53,10.0,Calm,Calm,-,N/A,,Mostly Cloudy,0,2013-01-27 22:54:00
6:54 PM,19.0,10.0,68,30.51,10.0,East,3.5,-,N/A,,Overcast,100,2013-01-27 23:54:00
7:54 PM,19.9,10.0,65,30.50,10.0,ESE,3.5,-,N/A,,Overcast,120,2013-01-28 00:54:00
8:54 PM,19.0,9.0,65,30.51,10.0,Calm,Calm,-,N/A,,Overcast,0,2013-01-28 01:54:00
9:54 PM,18.0,8.1,65,30.47,10.0,ESE,3.5,-,N/A,,Overcast,120,2013-01-28 02:54:00
10:54 PM,19.0,7.0,59,30.46,10.0,ESE,4.6,-,N/A,,Overcast,120,2013-01-28 03:54:00
11:54 PM,19.0,7.0,59,30.45,10.0,ESE,3.5,-,N/A,,Overcast,120,2013-01-28 04:54:00